sensor_id;sensor_type;location;lat;lon;timestamp;pressure;altitude;pressure_sealevel;temperature;humidity
5952;BME280;3001;42.622;23.194;2023-01-31T00:00:56;90720.50;;;1.91;86.18
5952;BME280;3001;42.622;23.194;2023-01-31T00:03:24;90734.84;;;1.92;86.54
5952;BME280;3001;42.622;23.194;2023-01-31T00:05:51;90731.97;;;2.03;85.69
5952;BME280;3001;42.622;23.194;2023-01-31T00:08:17;90731.03;;;1.89;86.52
5952;BME280;3001;42.622;23.194;2023-01-31T00:10:44;90731.75;;;2.00;86.52
5952;BME280;3001;42.622;23.194;2023-01-31T00:13:11;90724.00;;;2.10;85.58
5952;BME280;3001;42.622;23.194;2023-01-31T00:15:37;90719.13;;;2.13;86.78
5952;BME280;3001;42.622;23.194;2023-01-31T00:18:05;90698.91;;;2.07;87.16
5952;BME280;3001;42.622;23.194;2023-01-31T00:20:34;90700.19;;;2.09;87.31
5952;BME280;3001;42.622;23.194;2023-01-31T00:23:00;90716.03;;;2.16;87.39
5952;BME280;3001;42.622;23.194;2023-01-31T00:25:27;90715.75;;;2.23;86.54
5952;BME280;3001;42.622;23.194;2023-01-31T00:27:54;90712.91;;;2.24;83.66
5952;BME280;3001;42.622;23.194;2023-01-31T00:30:20;90720.34;;;2.26;83.83
5952;BME280;3001;42.622;23.194;2023-01-31T00:32:47;90716.22;;;2.30;82.92
5952;BME280;3001;42.622;23.194;2023-01-31T00:35:14;90716.78;;;2.22;85.98
5952;BME280;3001;42.622;23.194;2023-01-31T00:37:42;90716.75;;;2.27;86.88
5952;BME280;3001;42.622;23.194;2023-01-31T00:40:09;90718.34;;;2.18;84.72
5952;BME280;3001;42.622;23.194;2023-01-31T00:42:36;90727.59;;;2.09;82.83
5952;BME280;3001;42.622;23.194;2023-01-31T00:45:04;90723.06;;;1.96;81.61
5952;BME280;3001;42.622;23.194;2023-01-31T00:47:30;90718.44;;;1.98;83.63
5952;BME280;3001;42.622;23.194;2023-01-31T00:49:57;90716.69;;;1.83;83.80
5952;BME280;3001;42.622;23.194;2023-01-31T00:52:24;90725.09;;;1.94;83.33
5952;BME280;3001;42.622;23.194;2023-01-31T00:54:52;90717.09;;;2.10;84.32
5952;BME280;3001;42.622;23.194;2023-01-31T00:57:19;90716.78;;;2.22;83.64
5952;BME280;3001;42.622;23.194;2023-01-31T00:59:46;90720.97;;;2.03;76.19
5952;BME280;3001;42.622;23.194;2023-01-31T01:02:12;90724.44;;;2.27;78.95
5952;BME280;3001;42.622;23.194;2023-01-31T01:04:39;90727.31;;;2.15;73.94
5952;BME280;3001;42.622;23.194;2023-01-31T01:07:06;90745.44;;;2.29;72.32
5952;BME280;3001;42.622;23.194;2023-01-31T01:09:32;90755.94;;;2.32;74.89
5952;BME280;3001;42.622;23.194;2023-01-31T01:12:00;90764.34;;;2.38;67.04
5952;BME280;3001;42.622;23.194;2023-01-31T01:14:27;90769.31;;;2.19;52.03
5952;BME280;3001;42.622;23.194;2023-01-31T01:16:54;90755.97;;;2.27;65.32
5952;BME280;3001;42.622;23.194;2023-01-31T01:19:22;90753.19;;;2.19;71.55
5952;BME280;3001;42.622;23.194;2023-01-31T01:21:49;90780.63;;;2.08;54.10
5952;BME280;3001;42.622;23.194;2023-01-31T01:24:17;90770.59;;;2.12;54.81
5952;BME280;3001;42.622;23.194;2023-01-31T01:26:44;90768.28;;;2.15;61.52
5952;BME280;3001;42.622;23.194;2023-01-31T01:29:13;90778.28;;;2.17;54.28
5952;BME280;3001;42.622;23.194;2023-01-31T01:31:40;90772.13;;;2.18;56.20
5952;BME280;3001;42.622;23.194;2023-01-31T01:34:10;90777.75;;;2.20;63.36
5952;BME280;3001;42.622;23.194;2023-01-31T01:36:38;90770.38;;;2.08;52.10
5952;BME280;3001;42.622;23.194;2023-01-31T01:39:06;90757.22;;;2.30;57.86
5952;BME280;3001;42.622;23.194;2023-01-31T01:41:34;90760.31;;;2.27;60.39
5952;BME280;3001;42.622;23.194;2023-01-31T01:44:03;90758.50;;;2.32;63.64
5952;BME280;3001;42.622;23.194;2023-01-31T01:46:34;90753.41;;;2.22;61.54
5952;BME280;3001;42.622;23.194;2023-01-31T01:49:04;90758.59;;;2.07;57.47
5952;BME280;3001;42.622;23.194;2023-01-31T01:51:38;90763.22;;;2.05;59.09
5952;BME280;3001;42.622;23.194;2023-01-31T01:54:09;90765.47;;;2.17;56.90
5952;BME280;3001;42.622;23.194;2023-01-31T01:56:40;90767.50;;;2.25;56.95
5952;BME280;3001;42.622;23.194;2023-01-31T01:59:11;90770.50;;;2.37;61.67
5952;BME280;3001;42.622;23.194;2023-01-31T02:01:41;90773.38;;;2.30;61.34
5952;BME280;3001;42.622;23.194;2023-01-31T02:04:12;90767.53;;;2.15;64.38
5952;BME280;3001;42.622;23.194;2023-01-31T02:06:40;90787.50;;;2.13;58.57
5952;BME280;3001;42.622;23.194;2023-01-31T02:09:13;90776.22;;;2.14;61.37
5952;BME280;3001;42.622;23.194;2023-01-31T02:11:41;90781.63;;;2.12;59.13
5952;BME280;3001;42.622;23.194;2023-01-31T02:14:09;90773.72;;;2.04;60.77
5952;BME280;3001;42.622;23.194;2023-01-31T02:16:36;90789.28;;;2.17;60.32
5952;BME280;3001;42.622;23.194;2023-01-31T02:19:09;90787.97;;;2.25;59.15
5952;BME280;3001;42.622;23.194;2023-01-31T02:22:09;90782.72;;;1.91;55.97
5952;BME280;3001;42.622;23.194;2023-01-31T02:28:24;90773.25;;;1.97;65.53
5952;BME280;3001;42.622;23.194;2023-01-31T02:31:48;90757.56;;;2.13;65.47
5952;BME280;3001;42.622;23.194;2023-01-31T02:34:29;90780.31;;;2.20;61.01
5952;BME280;3001;42.622;23.194;2023-01-31T02:37:07;90777.22;;;2.23;61.67
5952;BME280;3001;42.622;23.194;2023-01-31T02:39:42;90780.38;;;2.05;58.86
5952;BME280;3001;42.622;23.194;2023-01-31T02:42:17;90791.16;;;1.92;60.99
5952;BME280;3001;42.622;23.194;2023-01-31T02:44:51;90782.97;;;1.90;58.84
5952;BME280;3001;42.622;23.194;2023-01-31T02:47:36;90786.03;;;2.02;60.99
5952;BME280;3001;42.622;23.194;2023-01-31T02:50:11;90782.44;;;2.03;63.54
5952;BME280;3001;42.622;23.194;2023-01-31T02:52:45;90777.91;;;1.80;62.08
5952;BME280;3001;42.622;23.194;2023-01-31T02:55:16;90790.44;;;1.86;63.28
5952;BME280;3001;42.622;23.194;2023-01-31T02:58:04;90802.44;;;1.91;63.58
5952;BME280;3001;42.622;23.194;2023-01-31T03:00:33;90804.78;;;1.87;62.85
5952;BME280;3001;42.622;23.194;2023-01-31T03:03:04;90813.97;;;1.88;66.32
5952;BME280;3001;42.622;23.194;2023-01-31T03:05:33;90822.94;;;1.96;64.90
5952;BME280;3001;42.622;23.194;2023-01-31T03:08:01;90818.06;;;1.94;68.53
5952;BME280;3001;42.622;23.194;2023-01-31T03:10:50;90830.31;;;2.02;64.50
5952;BME280;3001;42.622;23.194;2023-01-31T03:13:43;90843.03;;;2.32;66.89
5952;BME280;3001;42.622;23.194;2023-01-31T03:16:19;90845.41;;;2.09;67.94
5952;BME280;3001;42.622;23.194;2023-01-31T03:19:08;90835.22;;;1.84;67.08
5952;BME280;3001;42.622;23.194;2023-01-31T03:21:43;90843.19;;;1.72;67.78
5952;BME280;3001;42.622;23.194;2023-01-31T03:24:12;90832.94;;;1.77;70.96
5952;BME280;3001;42.622;23.194;2023-01-31T03:26:40;90840.63;;;1.72;71.45
5952;BME280;3001;42.622;23.194;2023-01-31T03:29:10;90836.28;;;1.63;71.84
5952;BME280;3001;42.622;23.194;2023-01-31T03:31:43;90838.59;;;1.60;72.95
5952;BME280;3001;42.622;23.194;2023-01-31T03:34:13;90849.34;;;1.57;72.84
5952;BME280;3001;42.622;23.194;2023-01-31T03:36:47;90869.81;;;1.42;72.64
5952;BME280;3001;42.622;23.194;2023-01-31T03:39:28;90852.44;;;1.54;73.19
5952;BME280;3001;42.622;23.194;2023-01-31T03:41:59;90856.25;;;1.61;73.77
5952;BME280;3001;42.622;23.194;2023-01-31T03:44:38;90854.97;;;1.59;73.45
5952;BME280;3001;42.622;23.194;2023-01-31T03:47:13;90866.47;;;1.81;73.09
5952;BME280;3001;42.622;23.194;2023-01-31T03:49:42;90863.13;;;1.95;73.28
5952;BME280;3001;42.622;23.194;2023-01-31T03:52:15;90868.28;;;1.85;74.08
5952;BME280;3001;42.622;23.194;2023-01-31T03:54:50;90866.75;;;1.84;74.42
5952;BME280;3001;42.622;23.194;2023-01-31T03:57:21;90872.88;;;1.73;76.55
5952;BME280;3001;42.622;23.194;2023-01-31T03:59:51;90868.03;;;1.77;76.27
5952;BME280;3001;42.622;23.194;2023-01-31T04:02:24;90881.06;;;1.80;76.75
5952;BME280;3001;42.622;23.194;2023-01-31T04:04:56;90839.13;;;1.47;76.80
5952;BME280;3001;42.622;23.194;2023-01-31T04:07:25;90865.94;;;1.89;76.19
5952;BME280;3001;42.622;23.194;2023-01-31T04:09:52;90857.00;;;1.91;76.32
5952;BME280;3001;42.622;23.194;2023-01-31T04:12:19;90872.59;;;1.90;76.41
5952;BME280;3001;42.622;23.194;2023-01-31T04:14:45;90874.94;;;1.71;77.87
5952;BME280;3001;42.622;23.194;2023-01-31T04:17:12;90872.63;;;1.70;78.14
5952;BME280;3001;42.622;23.194;2023-01-31T04:19:39;90890.81;;;1.59;79.02
5952;BME280;3001;42.622;23.194;2023-01-31T04:22:05;90886.72;;;1.67;78.79
5952;BME280;3001;42.622;23.194;2023-01-31T04:24:33;90896.72;;;1.74;79.08
5952;BME280;3001;42.622;23.194;2023-01-31T04:27:00;90878.78;;;1.49;78.81
5952;BME280;3001;42.622;23.194;2023-01-31T04:29:27;90902.84;;;1.68;79.68
5952;BME280;3001;42.622;23.194;2023-01-31T04:31:53;90904.13;;;1.66;80.89
5952;BME280;3001;42.622;23.194;2023-01-31T04:34:20;90895.94;;;1.54;81.13
5952;BME280;3001;42.622;23.194;2023-01-31T04:36:47;90896.19;;;1.62;80.99
5952;BME280;3001;42.622;23.194;2023-01-31T04:39:13;90909.47;;;1.69;80.30
5952;BME280;3001;42.622;23.194;2023-01-31T04:41:42;90902.59;;;1.50;79.50
5952;BME280;3001;42.622;23.194;2023-01-31T04:44:08;90899.75;;;1.51;79.97
5952;BME280;3001;42.622;23.194;2023-01-31T04:46:36;90918.19;;;1.48;80.24
5952;BME280;3001;42.622;23.194;2023-01-31T04:49:03;90897.19;;;1.31;80.40
5952;BME280;3001;42.622;23.194;2023-01-31T04:51:29;90914.06;;;1.32;80.28
5952;BME280;3001;42.622;23.194;2023-01-31T04:53:56;90914.34;;;1.26;81.95
5952;BME280;3001;42.622;23.194;2023-01-31T04:56:23;90904.63;;;1.38;82.50
5952;BME280;3001;42.622;23.194;2023-01-31T04:58:51;90904.63;;;1.63;81.36
5952;BME280;3001;42.622;23.194;2023-01-31T05:01:18;90929.19;;;1.59;80.79
5952;BME280;3001;42.622;23.194;2023-01-31T05:03:44;90911.53;;;1.67;80.96
5952;BME280;3001;42.622;23.194;2023-01-31T05:06:11;90913.59;;;1.85;80.14
5952;BME280;3001;42.622;23.194;2023-01-31T05:08:38;90911.25;;;1.83;79.89
5952;BME280;3001;42.622;23.194;2023-01-31T05:11:04;90909.72;;;1.82;79.86
5952;BME280;3001;42.622;23.194;2023-01-31T05:13:32;90900.78;;;1.85;79.21
5952;BME280;3001;42.622;23.194;2023-01-31T05:16:05;90899.75;;;1.86;80.07
5952;BME280;3001;42.622;23.194;2023-01-31T05:18:32;90915.38;;;1.69;79.02
5952;BME280;3001;42.622;23.194;2023-01-31T05:20:59;90905.91;;;1.80;79.65
5952;BME280;3001;42.622;23.194;2023-01-31T05:23:26;90894.91;;;1.69;79.67
5952;BME280;3001;42.622;23.194;2023-01-31T05:25:53;90904.88;;;1.81;79.56
5952;BME280;3001;42.622;23.194;2023-01-31T05:28:19;90910.78;;;1.86;78.94
5952;BME280;3001;42.622;23.194;2023-01-31T05:30:46;90917.41;;;1.97;78.59
5952;BME280;3001;42.622;23.194;2023-01-31T05:33:14;90897.97;;;1.91;78.96
5952;BME280;3001;42.622;23.194;2023-01-31T05:35:41;90916.38;;;2.13;77.57
5952;BME280;3001;42.622;23.194;2023-01-31T05:38:08;90920.22;;;1.91;78.12
5952;BME280;3001;42.622;23.194;2023-01-31T05:40:34;90920.00;;;1.87;79.25
5952;BME280;3001;42.622;23.194;2023-01-31T05:43:01;90929.69;;;1.95;78.38
5952;BME280;3001;42.622;23.194;2023-01-31T05:45:28;90928.16;;;1.94;78.32
5952;BME280;3001;42.622;23.194;2023-01-31T05:47:56;90932.78;;;1.87;77.06
5952;BME280;3001;42.622;23.194;2023-01-31T05:50:25;90920.50;;;1.89;77.84
5952;BME280;3001;42.622;23.194;2023-01-31T05:52:53;90938.41;;;1.99;78.11
5952;BME280;3001;42.622;23.194;2023-01-31T05:55:20;90933.78;;;2.01;78.58
5952;BME280;3001;42.622;23.194;2023-01-31T05:57:47;90937.66;;;1.99;78.84
5952;BME280;3001;42.622;23.194;2023-01-31T06:00:15;90936.13;;;1.78;78.97
5952;BME280;3001;42.622;23.194;2023-01-31T06:02:41;90940.72;;;1.86;79.33
5952;BME280;3001;42.622;23.194;2023-01-31T06:05:09;90943.56;;;1.84;79.03
5952;BME280;3001;42.622;23.194;2023-01-31T06:07:37;90926.66;;;1.73;80.20
5952;BME280;3001;42.622;23.194;2023-01-31T06:10:05;90943.78;;;1.88;79.96
5952;BME280;3001;42.622;23.194;2023-01-31T06:12:33;90930.22;;;1.82;79.82
5952;BME280;3001;42.622;23.194;2023-01-31T06:15:00;90936.38;;;1.91;79.23
5952;BME280;3001;42.622;23.194;2023-01-31T06:17:26;90939.38;;;2.23;79.50
5952;BME280;3001;42.622;23.194;2023-01-31T06:19:53;90933.78;;;2.11;79.28
5952;BME280;3001;42.622;23.194;2023-01-31T06:22:20;90934.28;;;2.18;79.55
5952;BME280;3001;42.622;23.194;2023-01-31T06:24:48;90923.50;;;2.31;79.58
5952;BME280;3001;42.622;23.194;2023-01-31T06:27:14;90921.75;;;2.17;79.91
5952;BME280;3001;42.622;23.194;2023-01-31T06:29:41;90932.97;;;2.31;79.92
5952;BME280;3001;42.622;23.194;2023-01-31T06:32:08;90944.00;;;2.21;80.15
5952;BME280;3001;42.622;23.194;2023-01-31T06:34:34;90935.56;;;2.26;80.93
5952;BME280;3001;42.622;23.194;2023-01-31T06:37:01;90937.56;;;2.44;80.52
5952;BME280;3001;42.622;23.194;2023-01-31T06:39:28;90936.53;;;2.50;79.63
5952;BME280;3001;42.622;23.194;2023-01-31T06:41:56;90940.84;;;2.59;79.51
5952;BME280;3001;42.622;23.194;2023-01-31T06:44:22;90940.38;;;2.52;79.59
5952;BME280;3001;42.622;23.194;2023-01-31T06:46:50;90948.03;;;2.67;79.45
5952;BME280;3001;42.622;23.194;2023-01-31T06:49:17;90946.19;;;2.73;78.34
5952;BME280;3001;42.622;23.194;2023-01-31T06:51:43;90944.69;;;2.67;78.08
5952;BME280;3001;42.622;23.194;2023-01-31T06:54:10;90938.28;;;2.69;78.60
5952;BME280;3001;42.622;23.194;2023-01-31T06:56:37;90946.97;;;2.63;78.37
5952;BME280;3001;42.622;23.194;2023-01-31T06:59:05;90940.06;;;2.69;77.53
5952;BME280;3001;42.622;23.194;2023-01-31T07:01:31;90935.44;;;2.71;78.97
5952;BME280;3001;42.622;23.194;2023-01-31T07:03:58;90932.34;;;2.74;78.27
5952;BME280;3001;42.622;23.194;2023-01-31T07:06:25;90931.06;;;2.76;77.66
5952;BME280;3001;42.622;23.194;2023-01-31T07:08:51;90947.41;;;2.85;77.77
5952;BME280;3001;42.622;23.194;2023-01-31T07:11:19;90949.72;;;2.92;77.55
5952;BME280;3001;42.622;23.194;2023-01-31T07:13:46;90947.44;;;2.90;77.25
5952;BME280;3001;42.622;23.194;2023-01-31T07:16:15;90961.03;;;2.86;77.69
5952;BME280;3001;42.622;23.194;2023-01-31T07:18:44;90959.75;;;2.78;76.80
5952;BME280;3001;42.622;23.194;2023-01-31T07:21:10;90973.59;;;2.87;78.42
5952;BME280;3001;42.622;23.194;2023-01-31T07:23:37;90958.78;;;2.64;79.20
5952;BME280;3001;42.622;23.194;2023-01-31T07:26:04;90965.22;;;2.52;79.19
5952;BME280;3001;42.622;23.194;2023-01-31T07:28:30;90969.59;;;2.46;78.87
5952;BME280;3001;42.622;23.194;2023-01-31T07:31:03;90973.19;;;2.40;79.17
5952;BME280;3001;42.622;23.194;2023-01-31T07:33:31;90969.34;;;2.48;80.73
5952;BME280;3001;42.622;23.194;2023-01-31T07:36:00;90959.59;;;2.45;80.02
5952;BME280;3001;42.622;23.194;2023-01-31T07:38:26;90959.09;;;2.48;80.41
5952;BME280;3001;42.622;23.194;2023-01-31T07:40:53;90973.41;;;2.54;80.04
5952;BME280;3001;42.622;23.194;2023-01-31T07:43:20;90975.47;;;2.52;81.21
5952;BME280;3001;42.622;23.194;2023-01-31T07:45:46;90971.41;;;2.36;81.29
5952;BME280;3001;42.622;23.194;2023-01-31T07:48:13;90969.59;;;2.46;81.95
5952;BME280;3001;42.622;23.194;2023-01-31T07:50:41;90967.03;;;2.46;81.69
5952;BME280;3001;42.622;23.194;2023-01-31T07:53:08;90971.59;;;2.64;82.34
5952;BME280;3001;42.622;23.194;2023-01-31T07:55:34;90969.75;;;2.75;80.88
5952;BME280;3001;42.622;23.194;2023-01-31T07:58:01;90975.16;;;2.78;81.13
5952;BME280;3001;42.622;23.194;2023-01-31T08:00:28;90971.59;;;2.64;80.55
5952;BME280;3001;42.622;23.194;2023-01-31T08:03:22;90971.06;;;2.72;80.70
5952;BME280;3001;42.622;23.194;2023-01-31T08:06:00;90980.25;;;2.83;80.30
5952;BME280;3001;42.622;23.194;2023-01-31T08:08:29;90981.28;;;2.87;81.06
5952;BME280;3001;42.622;23.194;2023-01-31T08:10:56;90983.06;;;2.92;81.39
5952;BME280;3001;42.622;23.194;2023-01-31T08:13:22;90976.91;;;2.98;79.68
5952;BME280;3001;42.622;23.194;2023-01-31T08:15:51;90965.84;;;2.97;79.78
5952;BME280;3001;42.622;23.194;2023-01-31T08:18:18;90976.88;;;2.93;79.31
5952;BME280;3001;42.622;23.194;2023-01-31T08:20:45;90963.03;;;2.99;79.95
5952;BME280;3001;42.622;23.194;2023-01-31T08:23:13;90976.59;;;3.04;79.97
5952;BME280;3001;42.622;23.194;2023-01-31T08:25:40;90976.38;;;2.96;79.50
5952;BME280;3001;42.622;23.194;2023-01-31T08:28:07;90973.31;;;2.99;79.26
5952;BME280;3001;42.622;23.194;2023-01-31T08:30:38;90980.44;;;3.07;80.07
5952;BME280;3001;42.622;23.194;2023-01-31T08:33:06;90983.25;;;3.10;78.84
5952;BME280;3001;42.622;23.194;2023-01-31T08:35:32;90975.59;;;3.00;78.86
5952;BME280;3001;42.622;23.194;2023-01-31T08:37:59;90981.22;;;3.02;79.72
5952;BME280;3001;42.622;23.194;2023-01-31T08:40:27;90975.34;;;3.02;78.49
5952;BME280;3001;42.622;23.194;2023-01-31T08:42:54;90975.59;;;2.95;78.69
5952;BME280;3001;42.622;23.194;2023-01-31T08:45:21;90979.19;;;2.99;79.84
5952;BME280;3001;42.622;23.194;2023-01-31T08:47:52;90982.81;;;2.93;79.78
5952;BME280;3001;42.622;23.194;2023-01-31T08:50:18;90980.69;;;3.05;80.69
5952;BME280;3001;42.622;23.194;2023-01-31T08:52:45;90985.34;;;2.98;80.66
5952;BME280;3001;42.622;23.194;2023-01-31T08:55:12;90970.41;;;3.15;80.42
5952;BME280;3001;42.622;23.194;2023-01-31T08:57:42;90967.06;;;3.20;80.34
5952;BME280;3001;42.622;23.194;2023-01-31T09:00:11;90966.50;;;3.28;79.23
5952;BME280;3001;42.622;23.194;2023-01-31T09:02:38;90969.28;;;3.36;79.64
5952;BME280;3001;42.622;23.194;2023-01-31T09:05:05;90980.28;;;3.41;79.48
5952;BME280;3001;42.622;23.194;2023-01-31T09:07:32;90976.41;;;3.49;77.86
5952;BME280;3001;42.622;23.194;2023-01-31T09:09:59;90986.63;;;3.54;77.48
5952;BME280;3001;42.622;23.194;2023-01-31T09:12:26;90979.22;;;3.47;77.24
5952;BME280;3001;42.622;23.194;2023-01-31T09:14:54;90977.44;;;3.43;77.46
5952;BME280;3001;42.622;23.194;2023-01-31T09:17:20;90978.25;;;3.38;77.12
5952;BME280;3001;42.622;23.194;2023-01-31T09:19:47;90968.47;;;3.40;77.12
5952;BME280;3001;42.622;23.194;2023-01-31T09:22:15;90970.28;;;3.40;77.89
5952;BME280;3001;42.622;23.194;2023-01-31T09:24:41;90974.38;;;3.41;78.60
5952;BME280;3001;42.622;23.194;2023-01-31T09:27:08;90968.38;;;3.55;77.99
5952;BME280;3001;42.622;23.194;2023-01-31T09:29:35;90973.44;;;3.70;76.42
5952;BME280;3001;42.622;23.194;2023-01-31T09:32:03;90965.47;;;3.72;76.86
5952;BME280;3001;42.622;23.194;2023-01-31T09:34:30;90968.53;;;3.74;76.23
5952;BME280;3001;42.622;23.194;2023-01-31T09:36:57;90950.50;;;3.79;76.95
5952;BME280;3001;42.622;23.194;2023-01-31T09:39:24;90959.72;;;3.85;77.15
5952;BME280;3001;42.622;23.194;2023-01-31T09:41:55;90965.16;;;3.78;75.47
5952;BME280;3001;42.622;23.194;2023-01-31T09:44:26;90965.50;;;3.62;75.25
5952;BME280;3001;42.622;23.194;2023-01-31T09:46:56;90951.34;;;3.69;75.29
5952;BME280;3001;42.622;23.194;2023-01-31T09:49:29;90952.13;;;3.65;74.97
5952;BME280;3001;42.622;23.194;2023-01-31T09:51:59;90929.97;;;3.79;75.85
5952;BME280;3001;42.622;23.194;2023-01-31T09:54:30;90926.50;;;3.93;75.18
5952;BME280;3001;42.622;23.194;2023-01-31T09:57:02;90924.38;;;4.29;73.15
5952;BME280;3001;42.622;23.194;2023-01-31T09:59:40;90930.41;;;4.19;73.32
5952;BME280;3001;42.622;23.194;2023-01-31T10:02:21;90936.53;;;4.52;72.64
5952;BME280;3001;42.622;23.194;2023-01-31T10:05:09;90935.44;;;4.29;72.80
5952;BME280;3001;42.622;23.194;2023-01-31T10:07:42;90936.50;;;4.28;72.65
5952;BME280;3001;42.622;23.194;2023-01-31T10:10:19;90936.63;;;4.13;72.27
5952;BME280;3001;42.622;23.194;2023-01-31T10:12:52;90936.31;;;4.20;74.50
5952;BME280;3001;42.622;23.194;2023-01-31T10:15:28;90935.75;;;4.23;74.07
5952;BME280;3001;42.622;23.194;2023-01-31T10:18:00;90932.69;;;4.21;73.68
5952;BME280;3001;42.622;23.194;2023-01-31T10:20:33;90938.75;;;4.35;72.82
5952;BME280;3001;42.622;23.194;2023-01-31T10:23:04;90929.81;;;4.27;72.01
5952;BME280;3001;42.622;23.194;2023-01-31T10:25:36;90920.81;;;4.30;72.75
5952;BME280;3001;42.622;23.194;2023-01-31T10:28:11;90914.94;;;4.24;71.80
5952;BME280;3001;42.622;23.194;2023-01-31T10:30:43;90926.56;;;4.17;70.73
5952;BME280;3001;42.622;23.194;2023-01-31T10:33:20;90916.28;;;4.17;71.12
5952;BME280;3001;42.622;23.194;2023-01-31T10:35:50;90899.56;;;4.19;70.99
5952;BME280;3001;42.622;23.194;2023-01-31T10:38:21;90900.88;;;4.17;68.94
5952;BME280;3001;42.622;23.194;2023-01-31T10:40:52;90902.16;;;4.14;69.72
5952;BME280;3001;42.622;23.194;2023-01-31T10:43:32;90891.50;;;4.31;71.23
5952;BME280;3001;42.622;23.194;2023-01-31T10:45:59;90894.16;;;4.21;70.27
5952;BME280;3001;42.622;23.194;2023-01-31T10:48:28;90892.16;;;4.41;70.59
5952;BME280;3001;42.622;23.194;2023-01-31T10:51:06;90898.88;;;4.61;70.81
5952;BME280;3001;42.622;23.194;2023-01-31T10:53:45;90884.97;;;4.62;68.98
5952;BME280;3001;42.622;23.194;2023-01-31T10:56:20;90889.09;;;4.63;69.65
5952;BME280;3001;42.622;23.194;2023-01-31T10:58:50;90894.34;;;4.53;69.32
5952;BME280;3001;42.622;23.194;2023-01-31T11:01:17;90877.66;;;4.50;70.44
5952;BME280;3001;42.622;23.194;2023-01-31T11:03:47;90890.63;;;4.64;69.77
5952;BME280;3001;42.622;23.194;2023-01-31T11:06:16;90896.84;;;4.58;70.90
5952;BME280;3001;42.622;23.194;2023-01-31T11:08:46;90891.53;;;4.49;70.48
5952;BME280;3001;42.622;23.194;2023-01-31T11:11:15;90893.19;;;4.40;71.20
5952;BME280;3001;42.622;23.194;2023-01-31T11:13:55;90888.63;;;4.32;71.28
5952;BME280;3001;42.622;23.194;2023-01-31T11:16:22;90886.19;;;4.22;72.42
5952;BME280;3001;42.622;23.194;2023-01-31T11:18:50;90891.25;;;4.27;73.84
5952;BME280;3001;42.622;23.194;2023-01-31T11:21:22;90906.38;;;4.34;73.75
5952;BME280;3001;42.622;23.194;2023-01-31T11:23:50;90898.31;;;4.17;73.21
5952;BME280;3001;42.622;23.194;2023-01-31T11:26:27;90908.28;;;4.18;73.28
5952;BME280;3001;42.622;23.194;2023-01-31T11:28:55;90901.22;;;4.34;73.63
5952;BME280;3001;42.622;23.194;2023-01-31T11:31:28;90904.56;;;4.34;73.31
5952;BME280;3001;42.622;23.194;2023-01-31T11:33:58;90898.00;;;4.23;73.66
5952;BME280;3001;42.622;23.194;2023-01-31T11:36:31;90904.78;;;4.38;73.49
5952;BME280;3001;42.622;23.194;2023-01-31T11:38:58;90906.53;;;4.42;72.66
5952;BME280;3001;42.622;23.194;2023-01-31T11:41:31;90899.75;;;4.51;73.22
5952;BME280;3001;42.622;23.194;2023-01-31T11:44:11;90901.03;;;4.54;73.26
5952;BME280;3001;42.622;23.194;2023-01-31T11:46:47;90904.81;;;4.61;73.64
5952;BME280;3001;42.622;23.194;2023-01-31T11:49:20;90896.91;;;4.53;73.46
5952;BME280;3001;42.622;23.194;2023-01-31T11:51:50;90892.84;;;4.47;73.86
5952;BME280;3001;42.622;23.194;2023-01-31T11:54:19;90900.03;;;4.50;73.76
5952;BME280;3001;42.622;23.194;2023-01-31T11:56:47;90902.66;;;4.45;73.58
5952;BME280;3001;42.622;23.194;2023-01-31T11:59:17;90904.28;;;4.36;73.45
5952;BME280;3001;42.622;23.194;2023-01-31T12:01:47;90899.63;;;4.38;73.74
5952;BME280;3001;42.622;23.194;2023-01-31T12:04:17;90897.31;;;4.41;73.86
5952;BME280;3001;42.622;23.194;2023-01-31T12:06:59;90893.91;;;4.17;73.86
5952;BME280;3001;42.622;23.194;2023-01-31T12:09:29;90895.25;;;4.15;74.56
5952;BME280;3001;42.622;23.194;2023-01-31T12:11:58;90898.16;;;4.03;75.35
5952;BME280;3001;42.622;23.194;2023-01-31T12:14:40;90897.50;;;3.93;75.67
5952;BME280;3001;42.622;23.194;2023-01-31T12:17:11;90900.09;;;3.88;75.39
5952;BME280;3001;42.622;23.194;2023-01-31T12:19:50;90904.72;;;3.86;75.16
5952;BME280;3001;42.622;23.194;2023-01-31T12:22:25;90911.72;;;3.80;76.43
5952;BME280;3001;42.622;23.194;2023-01-31T12:25:03;90920.78;;;3.73;76.45
5952;BME280;3001;42.622;23.194;2023-01-31T12:27:40;90912.25;;;3.77;76.29
5952;BME280;3001;42.622;23.194;2023-01-31T12:30:23;90904.13;;;3.65;76.08
5952;BME280;3001;42.622;23.194;2023-01-31T12:32:59;90904.53;;;3.77;75.94
5952;BME280;3001;42.622;23.194;2023-01-31T12:35:40;90904.56;;;3.72;77.19
5952;BME280;3001;42.622;23.194;2023-01-31T12:38:24;90908.28;;;3.56;76.75
5952;BME280;3001;42.622;23.194;2023-01-31T12:40:59;90908.22;;;3.66;75.87
5952;BME280;3001;42.622;23.194;2023-01-31T12:43:46;90901.50;;;3.70;76.59
5952;BME280;3001;42.622;23.194;2023-01-31T12:46:19;90899.44;;;3.72;76.62
5952;BME280;3001;42.622;23.194;2023-01-31T12:49:04;90899.88;;;3.84;76.17
5952;BME280;3001;42.622;23.194;2023-01-31T12:51:44;90904.41;;;3.92;75.71
5952;BME280;3001;42.622;23.194;2023-01-31T12:54:37;90901.34;;;3.90;75.46
5952;BME280;3001;42.622;23.194;2023-01-31T12:57:19;90904.72;;;3.91;75.31
5952;BME280;3001;42.622;23.194;2023-01-31T12:59:55;90894.94;;;3.93;74.44
5952;BME280;3001;42.622;23.194;2023-01-31T13:02:37;90901.00;;;4.02;74.15
5952;BME280;3001;42.622;23.194;2023-01-31T13:05:11;90898.78;;;3.90;73.99
5952;BME280;3001;42.622;23.194;2023-01-31T13:07:46;90903.38;;;3.98;74.54
5952;BME280;3001;42.622;23.194;2023-01-31T13:10:28;90899.56;;;4.19;73.98
5952;BME280;3001;42.622;23.194;2023-01-31T13:12:59;90897.69;;;4.01;73.24
5952;BME280;3001;42.622;23.194;2023-01-31T13:15:30;90905.09;;;4.03;74.08
5952;BME280;3001;42.622;23.194;2023-01-31T13:18:03;90901.97;;;4.11;74.40
5952;BME280;3001;42.622;23.194;2023-01-31T13:20:35;90902.66;;;4.16;73.73
5952;BME280;3001;42.622;23.194;2023-01-31T13:23:10;90894.50;;;4.38;73.03
5952;BME280;3001;42.622;23.194;2023-01-31T13:25:45;90901.44;;;4.61;73.26
5952;BME280;3001;42.622;23.194;2023-01-31T13:28:18;90911.25;;;4.59;73.27
5952;BME280;3001;42.622;23.194;2023-01-31T13:30:50;90914.75;;;4.68;71.67
5952;BME280;3001;42.622;23.194;2023-01-31T13:33:26;90911.78;;;4.79;72.31
5952;BME280;3001;42.622;23.194;2023-01-31T13:36:18;90913.38;;;4.75;71.90
5952;BME280;3001;42.622;23.194;2023-01-31T13:38:47;90915.03;;;4.66;72.87
5952;BME280;3001;42.622;23.194;2023-01-31T13:41:21;90909.09;;;4.66;72.67
5952;BME280;3001;42.622;23.194;2023-01-31T13:43:50;90920.22;;;4.61;73.52